65.2°F
Current conditions from King Hill
Updated every 5 minutes
 
  Thursday October 2, 2014

Station Historical Data
Daily Summary for March 23, 2012 Units:  English    Metric   Both
« Previous Day
Next Day »
Daily Weekly Monthly Yearly Custom
  High: Low: Average:
Temperature: 64.1 °F 44.7 °F 53.5 °F
Dew Point: 48.2 °F 20.2 °F 34.6 °F
Humidity: 85% 27% 53%
Wind Speed: 9.0mph 0.0mph 2.6mph
Wind Gust: 19.0mph - -
Wind- - South
Pressure: 30.16 in 30.06 in -
Precipitation: 0.00 in    
Historical Graphs
 
 
Tabular Data for March 23, 2012
Time Temperature Dew Point Pressure Wind Wind Speed Wind Gust Humidity Daily Rainfall
00:04 56.4 °F 48.2 °F 30.06 in Calm   4.0 mph 74% 0.00 in
00:09 56.1 °F 47.9 °F 30.07 in Calm   4.0 mph 74% 0.00 in
00:14 55.8 °F 47.6 °F 30.06 in Calm   6.0 mph 74% 0.00 in
00:19 55.7 °F 47.5 °F 30.07 in Calm   6.0 mph 74% 0.00 in
00:24 55.4 °F 47.3 °F 30.07 in Calm   3.0 mph 74% 0.00 in
00:29 55.0 °F 47.2 °F 30.07 in Calm     75% 0.00 in
00:34 54.2 °F 46.8 °F 30.08 in Calm     76% 0.00 in
00:40 53.6 °F 46.9 °F 30.07 in Calm     78% 0.00 in
00:49 52.7 °F 46.7 °F 30.08 in Calm     80% 0.00 in
00:54 52.6 °F 46.9 °F 30.07 in Calm   1.0 mph 81% 0.00 in
00:59 52.7 °F 47.4 °F 30.08 in Calm   1.0 mph 82% 0.00 in
01:04 52.6 °F 47.3 °F 30.08 in Calm     82% 0.00 in
01:09 52.4 °F 47.1 °F 30.08 in Calm   1.0 mph 82% 0.00 in
01:14 52.2 °F 46.9 °F 30.08 in Calm   1.0 mph 82% 0.00 in
01:19 52.1 °F 46.8 °F 30.08 in Calm   1.0 mph 82% 0.00 in
01:24 52.2 °F 47.2 °F 30.08 in Calm     83% 0.00 in
01:30 52.4 °F 47.1 °F 30.08 in NNE 1.0 mph 4.0 mph 82% 0.00 in
01:39 52.8 °F 47.1 °F 30.08 in Calm   1.0 mph 81% 0.00 in
01:44 52.9 °F 46.9 °F 30.08 in NNE 1.0 mph 5.0 mph 80% 0.00 in
01:49 52.8 °F 46.5 °F 30.08 in Calm   5.0 mph 79% 0.00 in
01:54 52.5 °F 46.2 °F 30.09 in Calm   4.0 mph 79% 0.00 in
01:59 52.3 °F 46.3 °F 30.09 in Calm   2.0 mph 80% 0.00 in
02:04 52.4 °F 46.4 °F 30.09 in Calm   2.0 mph 80% 0.00 in
02:09 52.5 °F 46.5 °F 30.08 in Calm   1.0 mph 80% 0.00 in
02:14 52.5 °F 46.2 °F 30.08 in NNE 1.0 mph 5.0 mph 79% 0.00 in
02:19 52.4 °F 46.1 °F 30.09 in Calm   5.0 mph 79% 0.00 in
02:24 52.3 °F 46.0 °F 30.09 in NNE 1.0 mph 5.0 mph 79% 0.00 in
02:29 52.0 °F 45.7 °F 30.09 in Calm   5.0 mph 79% 0.00 in
02:34 51.8 °F 45.5 °F 30.09 in Calm   5.0 mph 79% 0.00 in
02:39 51.6 °F 45.6 °F 30.09 in Calm   4.0 mph 80% 0.00 in
02:44 51.6 °F 45.6 °F 30.08 in Calm   5.0 mph 80% 0.00 in
02:49 51.5 °F 45.5 °F 30.09 in Calm   5.0 mph 80% 0.00 in
02:54 51.4 °F 45.4 °F 30.08 in North 1.0 mph 4.0 mph 80% 0.00 in
02:59 51.2 °F 45.2 °F 30.08 in Calm   4.0 mph 80% 0.00 in
03:04 51.0 °F 45.1 °F 30.09 in NNE 1.0 mph 5.0 mph 80% 0.00 in
03:09 50.8 °F 44.9 °F 30.09 in Calm   5.0 mph 80% 0.00 in
03:14 50.7 °F 44.8 °F 30.09 in Calm   3.0 mph 80% 0.00 in
03:19 50.5 °F 44.6 °F 30.09 in Calm   5.0 mph 80% 0.00 in
03:24 50.4 °F 44.8 °F 30.09 in Calm   5.0 mph 81% 0.00 in
03:29 50.2 °F 44.3 °F 30.09 in Calm   3.0 mph 80% 0.00 in
03:34 50.1 °F 44.5 °F 30.09 in Calm   1.0 mph 81% 0.00 in
03:39 50.1 °F 44.5 °F 30.10 in Calm   1.0 mph 81% 0.00 in
03:44 50.1 °F 44.5 °F 30.09 in Calm   6.0 mph 81% 0.00 in
03:49 49.9 °F 44.0 °F 30.09 in Calm   6.0 mph 80% 0.00 in
03:54 49.7 °F 44.1 °F 30.09 in Calm     81% 0.00 in
03:59 49.4 °F 43.5 °F 30.09 in Calm     80% 0.00 in
04:04 49.2 °F 43.9 °F 30.10 in Calm   4.0 mph 82% 0.00 in
04:09 49.1 °F 43.8 °F 30.10 in Calm   4.0 mph 82% 0.00 in
04:14 49.1 °F 43.8 °F 30.10 in Calm   2.0 mph 82% 0.00 in
04:19 49.1 °F 44.2 °F 30.10 in Calm   2.0 mph 83% 0.00 in
04:24 49.2 °F 44.3 °F 30.10 in Calm   1.0 mph 83% 0.00 in
04:30 49.2 °F 44.3 °F 30.10 in Calm   1.0 mph 83% 0.00 in
04:39 49.2 °F 44.3 °F 30.10 in NNE 2.0 mph 7.0 mph 83% 0.00 in
04:44 49.3 °F 44.4 °F 30.10 in Calm   7.0 mph 83% 0.00 in
04:49 49.4 °F 44.5 °F 30.11 in Calm   5.0 mph 83% 0.00 in
04:54 49.2 °F 43.9 °F 30.10 in Calm   3.0 mph 82% 0.00 in
04:59 49.0 °F 44.1 °F 30.11 in Calm   4.0 mph 83% 0.00 in
05:04 48.8 °F 43.9 °F 30.11 in Calm   4.0 mph 83% 0.00 in
05:09 48.5 °F 43.6 °F 30.11 in Calm   4.0 mph 83% 0.00 in
05:14 48.3 °F 43.4 °F 30.11 in Calm   2.0 mph 83% 0.00 in
05:19 48.1 °F 43.5 °F 30.11 in Calm   3.0 mph 84% 0.00 in
05:24 47.9 °F 43.3 °F 30.11 in Calm   3.0 mph 84% 0.00 in
05:29 47.8 °F 43.2 °F 30.11 in NNE 1.0 mph 4.0 mph 84% 0.00 in
05:34 47.9 °F 43.3 °F 30.11 in North 1.0 mph 5.0 mph 84% 0.00 in
05:39 47.7 °F 43.1 °F 30.12 in Calm   5.0 mph 84% 0.00 in
05:44 47.4 °F 42.8 °F 30.12 in Calm   4.0 mph 84% 0.00 in
05:49 47.3 °F 43.0 °F 30.12 in Calm   6.0 mph 85% 0.00 in
05:54 47.3 °F 43.0 °F 30.12 in NNE 1.0 mph 6.0 mph 85% 0.00 in
05:59 47.5 °F 43.2 °F 30.11 in NNE 2.0 mph 8.0 mph 85% 0.00 in
06:04 48.0 °F 43.4 °F 30.11 in NE 2.0 mph 10.0 mph 84% 0.00 in
06:09 48.3 °F 43.1 °F 30.12 in NE 1.0 mph 10.0 mph 82% 0.00 in
06:14 48.3 °F 42.7 °F 30.12 in NE 1.0 mph 7.0 mph 81% 0.00 in
06:19 48.3 °F 42.7 °F 30.12 in NE 2.0 mph 8.0 mph 81% 0.00 in
06:24 48.3 °F 42.7 °F 30.12 in NE 1.0 mph 8.0 mph 81% 0.00 in
06:29 48.1 °F 42.6 °F 30.12 in Calm   5.0 mph 81% 0.00 in
06:34 47.9 °F 42.4 °F 30.13 in NNE 1.0 mph 6.0 mph 81% 0.00 in
06:39 47.6 °F 42.1 °F 30.13 in Calm   6.0 mph 81% 0.00 in
06:44 47.1 °F 41.6 °F 30.13 in Calm   3.0 mph 81% 0.00 in
06:49 46.5 °F 41.3 °F 30.13 in Calm   3.0 mph 82% 0.00 in
06:54 46.1 °F 41.2 °F 30.13 in Calm   1.0 mph 83% 0.00 in
06:59 45.9 °F 41.0 °F 30.13 in Calm   3.0 mph 83% 0.00 in
07:04 45.9 °F 41.3 °F 30.14 in Calm   3.0 mph 84% 0.00 in
07:09 45.9 °F 41.3 °F 30.14 in Calm   2.0 mph 84% 0.00 in
07:14 45.8 °F 41.2 °F 30.14 in NE 2.0 mph 7.0 mph 84% 0.00 in
07:20 46.0 °F 41.4 °F 30.14 in Calm   9.0 mph 84% 0.00 in
07:25 46.2 °F 41.3 °F 30.14 in NNE 1.0 mph 9.0 mph 83% 0.00 in
07:30 46.6 °F 41.7 °F 30.14 in Calm   8.0 mph 83% 0.00 in
07:35 46.8 °F 41.6 °F 30.15 in Calm   8.0 mph 82% 0.00 in
07:40 46.9 °F 41.4 °F 30.15 in Calm   8.0 mph 81% 0.00 in
07:49 46.9 °F 41.1 °F 30.15 in Calm   6.0 mph 80% 0.00 in
07:54 46.9 °F 40.7 °F 30.15 in NNE 4.0 mph 9.0 mph 79% 0.00 in
07:59 47.0 °F 40.5 °F 30.15 in NE 1.0 mph 9.0 mph 78% 0.00 in
08:04 47.1 °F 40.6 °F 30.15 in Calm   7.0 mph 78% 0.00 in
08:09 47.1 °F 40.3 °F 30.15 in NE 2.0 mph 8.0 mph 77% 0.00 in
08:14 47.0 °F 40.2 °F 30.16 in Calm   8.0 mph 77% 0.00 in
08:19 47.1 °F 39.6 °F 30.16 in ENE 1.0 mph 5.0 mph 75% 0.00 in
08:25 47.5 °F 38.9 °F 30.16 in NE 1.0 mph 8.0 mph 72% 0.00 in
08:35 48.8 °F 38.3 °F 30.16 in NE 1.0 mph 7.0 mph 67% 0.00 in
08:45 50.9 °F 38.8 °F 30.16 in Calm   7.0 mph 63% 0.00 in
08:50 51.8 °F 38.8 °F 30.16 in North 1.0 mph 7.0 mph 61% 0.00 in
08:55 52.1 °F 36.4 °F 30.16 in NE 4.0 mph 8.0 mph 55% 0.00 in
08:59 52.5 °F 37.7 °F 30.16 in Calm   8.0 mph 57% 0.00 in
09:04 52.8 °F 36.6 °F 30.16 in NE 2.0 mph 8.0 mph 54% 0.00 in
09:09 53.1 °F 36.9 °F 30.16 in NE 2.0 mph 8.0 mph 54% 0.00 in
09:15 53.4 °F 37.2 °F 30.16 in NE 1.0 mph 8.0 mph 54% 0.00 in
09:19 53.9 °F 38.1 °F 30.15 in NE 1.0 mph 8.0 mph 55% 0.00 in
09:25 54.3 °F 36.1 °F 30.15 in NNE 2.0 mph 8.0 mph 50% 0.00 in
09:29 54.4 °F 36.2 °F 30.15 in NNE 3.0 mph 9.0 mph 50% 0.00 in
09:34 54.2 °F 33.9 °F 30.15 in NE 5.0 mph 9.0 mph 46% 0.00 in
09:40 54.3 °F 35.0 °F 30.15 in NE 2.0 mph 9.0 mph 48% 0.00 in
09:45 54.6 °F 33.7 °F 30.15 in NNE 1.0 mph 8.0 mph 45% 0.00 in
09:49 55.3 °F 33.8 °F 30.15 in NNW 1.0 mph 8.0 mph 44% 0.00 in
09:55 55.6 °F 33.5 °F 30.15 in NNE 3.0 mph 9.0 mph 43% 0.00 in
09:59 56.0 °F 33.8 °F 30.15 in Calm   9.0 mph 43% 0.00 in
10:04 56.1 °F 34.5 °F 30.15 in Calm   5.0 mph 44% 0.00 in
10:09 56.2 °F 32.8 °F 30.15 in Calm   8.0 mph 41% 0.00 in
10:14 56.6 °F 33.2 °F 30.15 in NNW 1.0 mph 8.0 mph 41% 0.00 in
10:19 57.0 °F 32.9 °F 30.16 in North 1.0 mph 4.0 mph 40% 0.00 in
10:24 57.4 °F 32.7 °F 30.16 in Calm   8.0 mph 39% 0.00 in
10:30 58.0 °F 32.5 °F 30.16 in Calm   8.0 mph 38% 0.00 in
10:40 59.0 °F 32.8 °F 30.16 in Calm   8.0 mph 37% 0.00 in
10:44 59.0 °F 33.4 °F 30.16 in NW 4.0 mph 8.0 mph 38% 0.00 in
10:50 59.5 °F 33.9 °F 30.16 in North 1.0 mph 8.0 mph 38% 0.00 in
10:54 59.8 °F 32.8 °F 30.16 in NNE 3.0 mph 11.0 mph 36% 0.00 in
10:59 59.5 °F 32.5 °F 30.16 in NNW 4.0 mph 11.0 mph 36% 0.00 in
11:04 59.5 °F 33.2 °F 30.16 in NNW 5.0 mph 10.0 mph 37% 0.00 in
11:10 60.2 °F 33.8 °F 30.16 in North 2.0 mph 10.0 mph 37% 0.00 in
11:14 60.4 °F 31.9 °F 30.16 in North 1.0 mph 13.0 mph 34% 0.00 in
11:19 60.0 °F 30.8 °F 30.16 in North 5.0 mph 14.0 mph 33% 0.00 in
11:25 59.7 °F 30.6 °F 30.16 in NNE 4.0 mph 14.0 mph 33% 0.00 in
11:35 59.6 °F 32.6 °F 30.16 in North 2.0 mph 10.0 mph 36% 0.00 in
11:40 59.8 °F 32.1 °F 30.15 in North 2.0 mph 10.0 mph 35% 0.00 in
11:44 59.8 °F 30.6 °F 30.15 in NNW 6.0 mph 11.0 mph 33% 0.00 in
11:49 59.8 °F 32.8 °F 30.16 in NNW 3.0 mph 11.0 mph 36% 0.00 in
11:54 59.8 °F 30.6 °F 30.15 in WNW 9.0 mph 17.0 mph 33% 0.00 in
11:59 59.4 °F 28.8 °F 30.15 in North 3.0 mph 17.0 mph 31% 0.00 in
12:04 59.9 °F 32.9 °F 30.14 in NW 2.0 mph 12.0 mph 36% 0.00 in
12:09 59.8 °F 29.9 °F 30.14 in NW 5.0 mph 14.0 mph 32% 0.00 in
12:14 59.6 °F 29.7 °F 30.14 in NNW 4.0 mph 14.0 mph 32% 0.00 in
12:20 59.9 °F 27.6 °F 30.15 in NW 7.0 mph 19.0 mph 29% 0.00 in
12:24 59.4 °F 28.8 °F 30.15 in NW 6.0 mph 19.0 mph 31% 0.00 in
12:30 58.8 °F 27.4 °F 30.15 in WNW 8.0 mph 17.0 mph 30% 0.00 in
12:35 58.2 °F 28.5 °F 30.15 in NW 7.0 mph 17.0 mph 32% 0.00 in
12:44 58.7 °F 28.9 °F 30.15 in NNW 6.0 mph 13.0 mph 32% 0.00 in
12:50 59.5 °F 29.6 °F 30.14 in NNW 4.0 mph 13.0 mph 32% 0.00 in
12:54 60.0 °F 27.7 °F 30.14 in WNW 8.0 mph 13.0 mph 29% 0.00 in
12:59 59.7 °F 29.0 °F 30.14 in NW 6.0 mph 13.0 mph 31% 0.00 in
13:04 60.0 °F 29.3 °F 30.14 in NW 8.0 mph 14.0 mph 31% 0.00 in
13:09 60.3 °F 31.8 °F 30.14 in NNW 4.0 mph 14.0 mph 34% 0.00 in
13:14 60.6 °F 31.3 °F 30.14 in NW 5.0 mph 12.0 mph 33% 0.00 in
13:20 60.3 °F 31.1 °F 30.14 in NW 6.0 mph 13.0 mph 33% 0.00 in
13:30 60.8 °F 30.8 °F 30.13 in NNW 6.0 mph 13.0 mph 32% 0.00 in
13:40 61.2 °F 32.6 °F 30.13 in NNW 3.0 mph 16.0 mph 34% 0.00 in
13:50 62.1 °F 31.9 °F 30.12 in North 4.0 mph 10.0 mph 32% 0.00 in
13:54 61.9 °F 30.9 °F 30.11 in NNW 5.0 mph 15.0 mph 31% 0.00 in
13:59 62.4 °F 30.6 °F 30.11 in NNW 2.0 mph 15.0 mph 30% 0.00 in
14:04 62.7 °F 31.6 °F 30.11 in North 3.0 mph 13.0 mph 31% 0.00 in
14:09 63.0 °F 31.9 °F 30.11 in NNW 2.0 mph 13.0 mph 31% 0.00 in
14:14 62.9 °F 31.8 °F 30.11 in NW 3.0 mph 12.0 mph 31% 0.00 in
14:19 62.7 °F 32.4 °F 30.11 in NNW 1.0 mph 12.0 mph 32% 0.00 in
14:25 62.0 °F 31.0 °F 30.10 in North 4.0 mph 12.0 mph 31% 0.00 in
14:35 60.2 °F 31.0 °F 30.10 in NNW 3.0 mph 19.0 mph 33% 0.00 in
14:40 59.8 °F 30.6 °F 30.10 in NW 5.0 mph 16.0 mph 33% 0.00 in
14:45 60.9 °F 32.4 °F 30.10 in NNW 3.0 mph 9.0 mph 34% 0.00 in
14:50 62.1 °F 31.9 °F 30.10 in NNW 2.0 mph 9.0 mph 32% 0.00 in
14:59 63.3 °F 32.2 °F 30.10 in North 4.0 mph 15.0 mph 31% 0.00 in
15:04 63.1 °F 29.5 °F 30.09 in NNW 2.0 mph 15.0 mph 28% 0.00 in
15:09 62.2 °F 29.6 °F 30.09 in North 2.0 mph 9.0 mph 29% 0.00 in
15:14 62.1 °F 30.3 °F 30.09 in NNE 4.0 mph 14.0 mph 30% 0.00 in
15:19 61.9 °F 30.9 °F 30.08 in North 1.0 mph 14.0 mph 31% 0.00 in
15:25 62.0 °F 31.0 °F 30.08 in North 4.0 mph 11.0 mph 31% 0.00 in
15:30 62.8 °F 30.9 °F 30.08 in North 3.0 mph 16.0 mph 30% 0.00 in
15:35 63.8 °F 29.2 °F 30.07 in NNE 4.0 mph 16.0 mph 27% 0.00 in
15:44 64.1 °F 32.0 °F 30.08 in NNW 1.0 mph 14.0 mph 30% 0.00 in
15:49 64.0 °F 31.1 °F 30.08 in NW 1.0 mph 14.0 mph 29% 0.00 in
15:54 63.9 °F 31.0 °F 30.08 in North 1.0 mph 10.0 mph 29% 0.00 in
15:59 63.7 °F 31.7 °F 30.07 in NNE 4.0 mph 10.0 mph 30% 0.00 in
16:04 63.3 °F 32.2 °F 30.08 in North 6.0 mph 12.0 mph 31% 0.00 in
16:09 63.1 °F 30.3 °F 30.07 in North 3.0 mph 12.0 mph 29% 0.00 in
16:14 63.4 °F 30.6 °F 30.07 in North 4.0 mph 11.0 mph 29% 0.00 in
16:19 63.8 °F 31.8 °F 30.07 in NNW 3.0 mph 12.0 mph 30% 0.00 in
16:25 63.6 °F 30.8 °F 30.07 in North 2.0 mph 12.0 mph 29% 0.00 in
16:30 62.8 °F 30.9 °F 30.07 in NW 7.0 mph 13.0 mph 30% 0.00 in
16:40 61.4 °F 31.3 °F 30.07 in NNW 5.0 mph 15.0 mph 32% 0.00 in
16:49 61.0 °F 30.2 °F 30.07 in NNW 5.0 mph 12.0 mph 31% 0.00 in
16:54 60.9 °F 30.1 °F 30.07 in NW 5.0 mph 12.0 mph 31% 0.00 in
16:59 60.8 °F 31.5 °F 30.07 in NNW 1.0 mph 12.0 mph 33% 0.00 in
17:04 60.7 °F 30.7 °F 30.07 in North 5.0 mph 11.0 mph 32% 0.00 in
17:09 60.1 °F 30.9 °F 30.07 in North 2.0 mph 16.0 mph 33% 0.00 in
17:14 59.6 °F 28.9 °F 30.07 in North 3.0 mph 16.0 mph 31% 0.00 in
17:19 59.3 °F 30.2 °F 30.07 in Calm   10.0 mph 33% 0.00 in
17:24 59.0 °F 28.4 °F 30.07 in North 3.0 mph 11.0 mph 31% 0.00 in
17:30 58.7 °F 27.4 °F 30.07 in NNW 2.0 mph 11.0 mph 30% 0.00 in
17:39 57.7 °F 27.3 °F 30.07 in NNE 1.0 mph 9.0 mph 31% 0.00 in
17:44 57.5 °F 27.1 °F 30.07 in North 1.0 mph 9.0 mph 31% 0.00 in
17:49 57.4 °F 26.2 °F 30.07 in NNW 1.0 mph 6.0 mph 30% 0.00 in
17:54 57.5 °F 27.1 °F 30.07 in NNE 1.0 mph 9.0 mph 31% 0.00 in
17:59 57.6 °F 27.2 °F 30.07 in North 1.0 mph 9.0 mph 31% 0.00 in
18:04 57.6 °F 25.6 °F 30.07 in NNW 4.0 mph 10.0 mph 29% 0.00 in
18:09 57.6 °F 27.2 °F 30.07 in NNW 2.0 mph 10.0 mph 31% 0.00 in
18:14 57.6 °F 25.6 °F 30.08 in NNW 2.0 mph 8.0 mph 29% 0.00 in
18:19 57.5 °F 25.5 °F 30.08 in North 2.0 mph 9.0 mph 29% 0.00 in
18:25 57.1 °F 26.0 °F 30.07 in Calm   9.0 mph 30% 0.00 in
18:34 56.3 °F 24.5 °F 30.07 in North 1.0 mph 7.0 mph 29% 0.00 in
18:39 55.8 °F 24.8 °F 30.07 in Calm   7.0 mph 30% 0.00 in
18:45 55.4 °F 24.5 °F 30.08 in NNW 1.0 mph 7.0 mph 30% 0.00 in
18:49 55.0 °F 24.1 °F 30.08 in NNW 3.0 mph 12.0 mph 30% 0.00 in
18:55 54.7 °F 26.9 °F 30.08 in NNE 2.0 mph 12.0 mph 34% 0.00 in
19:05 53.8 °F 24.6 °F 30.08 in NNW 1.0 mph 5.0 mph 32% 0.00 in
19:10 53.4 °F 25.0 °F 30.08 in Calm   5.0 mph 33% 0.00 in
19:15 52.9 °F 26.0 °F 30.08 in Calm   6.0 mph 35% 0.00 in
19:20 52.4 °F 26.2 °F 30.08 in NNW 1.0 mph 6.0 mph 36% 0.00 in
19:25 52.3 °F 26.1 °F 30.08 in Calm   7.0 mph 36% 0.00 in
19:30 52.3 °F 25.5 °F 30.08 in NNW 3.0 mph 10.0 mph 35% 0.00 in
19:35 52.7 °F 25.8 °F 30.08 in Calm   10.0 mph 35% 0.00 in
19:40 52.8 °F 25.9 °F 30.09 in NW 2.0 mph 9.0 mph 35% 0.00 in
19:50 52.2 °F 26.7 °F 30.08 in NNW 1.0 mph 5.0 mph 37% 0.00 in
19:55 51.8 °F 25.0 °F 30.08 in NNW 1.0 mph 6.0 mph 35% 0.00 in
20:05 51.4 °F 24.7 °F 30.08 in Calm   4.0 mph 35% 0.00 in
20:10 51.2 °F 23.8 °F 30.08 in Calm   4.0 mph 34% 0.00 in
20:15 51.0 °F 25.0 °F 30.08 in North 1.0 mph 5.0 mph 36% 0.00 in
20:20 51.0 °F 25.0 °F 30.09 in Calm   7.0 mph 36% 0.00 in
20:25 50.9 °F 24.9 °F 30.09 in NNE 1.0 mph 7.0 mph 36% 0.00 in
20:30 50.8 °F 26.7 °F 30.09 in Calm   7.0 mph 39% 0.00 in
20:35 50.5 °F 26.5 °F 30.09 in Calm   4.0 mph 39% 0.00 in
20:40 50.3 °F 27.5 °F 30.09 in North 1.0 mph 6.0 mph 41% 0.00 in
20:50 49.4 °F 26.1 °F 30.09 in Calm   1.0 mph 40% 0.00 in
21:00 49.0 °F 26.9 °F 30.09 in Calm   1.0 mph 42% 0.00 in
21:05 48.8 °F 26.7 °F 30.09 in Calm   1.0 mph 42% 0.00 in
21:10 48.5 °F 27.0 °F 30.09 in Calm   1.0 mph 43% 0.00 in
21:15 48.3 °F 26.8 °F 30.09 in Calm   1.0 mph 43% 0.00 in
21:20 48.2 °F 27.3 °F 30.09 in Calm   3.0 mph 44% 0.00 in
21:25 48.3 °F 26.8 °F 30.10 in Calm   3.0 mph 43% 0.00 in
21:30 48.3 °F 26.3 °F 30.10 in NE 1.0 mph 3.0 mph 42% 0.00 in
21:35 48.2 °F 26.2 °F 30.09 in Calm   5.0 mph 42% 0.00 in
21:40 48.1 °F 26.7 °F 30.10 in Calm   5.0 mph 43% 0.00 in
21:45 47.8 °F 25.8 °F 30.10 in Calm   4.0 mph 42% 0.00 in
21:50 47.5 °F 26.1 °F 30.10 in Calm   5.0 mph 43% 0.00 in
22:00 47.2 °F 24.7 °F 30.09 in Calm   4.0 mph 41% 0.00 in
22:05 47.1 °F 24.0 °F 30.10 in Calm   3.0 mph 40% 0.00 in
22:10 46.9 °F 21.3 °F 30.10 in North 1.0 mph 4.0 mph 36% 0.00 in
22:15 47.0 °F 23.3 °F 30.09 in Calm   4.0 mph 39% 0.00 in
22:20 46.9 °F 23.2 °F 30.10 in Calm   2.0 mph 39% 0.00 in
22:25 46.8 °F 23.1 °F 30.10 in Calm   2.0 mph 39% 0.00 in
22:30 46.6 °F 21.7 °F 30.09 in NNE 1.0 mph 5.0 mph 37% 0.00 in
22:35 46.5 °F 24.6 °F 30.10 in NNE 1.0 mph 6.0 mph 42% 0.00 in
22:40 46.2 °F 23.8 °F 30.10 in NNE 1.0 mph 7.0 mph 41% 0.00 in
22:45 45.9 °F 22.3 °F 30.10 in Calm   7.0 mph 39% 0.00 in
22:50 45.8 °F 22.8 °F 30.10 in Calm   6.0 mph 40% 0.00 in
22:55 45.7 °F 23.3 °F 30.10 in Calm   4.0 mph 41% 0.00 in
23:00 45.5 °F 21.4 °F 30.10 in Calm   4.0 mph 38% 0.00 in
23:05 45.4 °F 21.9 °F 30.10 in NE 1.0 mph 6.0 mph 39% 0.00 in
23:10 45.3 °F 22.4 °F 30.10 in NE 1.0 mph 9.0 mph 40% 0.00 in
23:15 45.1 °F 22.2 °F 30.10 in North 1.0 mph 9.0 mph 40% 0.00 in
23:20 45.0 °F 22.7 °F 30.10 in Calm   5.0 mph 41% 0.00 in
23:25 44.7 °F 21.9 °F 30.10 in Calm   5.0 mph 40% 0.00 in
23:30 44.7 °F 21.3 °F 30.10 in NE 1.0 mph 5.0 mph 39% 0.00 in
23:35 44.9 °F 22.6 °F 30.10 in Calm   7.0 mph 41% 0.00 in
23:40 44.9 °F 20.2 °F 30.10 in NE 2.0 mph 8.0 mph 37% 0.00 in
23:50 45.6 °F 20.8 °F 30.10 in NE 1.0 mph 11.0 mph 37% 0.00 in
23:55 45.5 °F 21.4 °F 30.10 in NNE 1.0 mph 7.0 mph 38% 0.00 in
Westford Weather
Compliments of Weather Underground

 
 
Current Radar Loop:

Copyright © WestfordWeather.net 2007-2014. All rights reserved.